Bronx, NY

4:57 AM EDT on October 23, 2014 (GMT -0400)
South Bronx | Change Station
CLOSE
Current Station
Personal Weather Station
Location: New York, NY
Elevation: 36 ft
Nearby Weather Stations
Active Advisory: Coastal Flood Statement Active Notice: Record Report

Elev 36 ft 40.81 °N, 73.91 °W | Updated 3 minutes ago

Rain
Rain
51.3 °F
Feels Like 51.3 °F
N
5.1
Wind Variable Wind from SW
Gusts 12.3 mph

Today
High -- | Low -- °F
--% Chance of Precip.
Yesterday
High -- | Low -- °F
Precip. -- in
7:15 AM 6:03 PM
Waning Crescent, 0% visible
Pressure 29.69 in
Visibility 10.0 miles
Clouds Mostly Cloudy 2500 ft
Overcast 3200 ft
Dew Point 49 °F
Humidity 90%
Rainfall -999.00 in
Snow Depth Not available.
UV 0 out of 12
Pollen .30 out of 12
Ozone Good
PM2.5 Good
Flu Activity Sporadic
METAR KLGA 230851Z 36015G19KT 10SM -RA BKN025 OVC032 11/09 A2969 RMK AO2 SLP053 P0005 60005 T01110089 56007

More Conditions Fewer Conditions

Pressure 29.69 in
Visibility 10.0 miles
Clouds Mostly Cloudy 2500 ft
Overcast 3200 ft
Dew Point 49 °F
Humidity 90%
Rainfall -999.00 in
Snow Depth Not available.
UV 0 out of 12
Pollen .30 out of 12
Ozone Good
PM2.5 Good
Flu Activity Sporadic
METAR KLGA 230851Z 36015G19KT 10SM -RA BKN025 OVC032 11/09 A2969 RMK AO2 SLP053 P0005 60005 T01110089 56007

More Conditions Fewer Conditions

10-Day Weather Forecast

Almanac

Astronomy

Oct. 23, 2014 Rise Set
Actual Time 7:15 AM EDT 6:03 PM EDT
Civil Twilight 6:47 AM EDT 6:31 PM EDT
Nautical Twilight 6:15 AM EDT 7:03 PM EDT
Astronomical Twilight 5:44 AM EDT 7:35 PM EDT
Moon 6:52 AM EDT 6:03 PM EDT
Length of Visible Light 11h 43m
Length of Day
10h 47m
Tomorrow will be 2m 30s shorter.
Waning Crescent, 0% of the Moon is Illuminated
Today
Waning Crescent
Oct 23
New
Oct 30
First Quarter
Nov 6
Full
Nov 14
Last Quarter

Today's Extremes

State Highs State Lows

Community

WunderPhotos

Upload Photos

1,764,197 photos uploaded!

Nearby

Air Quality

  Air Quality AQ Index Pollutant
Yesterday Good
PM2.5
Current Good
OZONE
Current Good
PM2.5
Thursday Good
PM2.5

Snow Depth

Station Depth Elevation
No new snow has been reported.

Earthquake Activity

City Distance Mag. Time & Date
No recent earthquake activity has been reported nearby.
Minimum magnitude displayed is 2.5.

Coastal Water Temperatures

Place Temperature
Bridgeport, CT 61.0 °F

Nearby Weather Stations